Flight Track Log - Related Links

Times and Time Zones

All times are in EDT time to prevent confusion due to time zone crossing. See the N342ER flight status page for this flight to view local times or setup timezone preferences in your user account.

Time Position Orientation Groundspeed Altitude Reporting Facility
EDT Latitude Longitude Course Direction KTS MPH feet Rate Location/Type
Wed 05:03:56 PM 33.5411 -86.7506 174° South 151 174 1,200  Level Atlanta Center
Wed 05:05:09 PM 33.4911 -86.7439 174° South 149 171 3,500 1,805 Climbing Atlanta Center
Wed 05:06:09 PM 33.4539 -86.7353 169° South 127 146 5,200 1,465 Climbing Atlanta Center
Wed 05:07:16 PM 33.4161 -86.7342 179° South 132 152 6,600 934 Climbing Atlanta Center
Wed 05:08:11 PM 33.3783 -86.7528 202° Southwest 163 188 7,100 275 Climbing Atlanta Center
Wed 05:09:05 PM 33.3358 -86.7814 209° Southwest 197 227 7,100  Level Atlanta Center
Wed 05:10:06 PM 33.2914 -86.8147 212° Southwest 196 226 7,100  Level Atlanta Center
Wed 05:11:13 PM 33.2344 -86.8303 193° South 207 238 7,100  Level Atlanta Center
Wed 05:12:19 PM 33.1903 -86.7619 128° Southeast 232 267 7,100 -98 Level Atlanta Center
Wed 05:14:00 PM 33.1311 -86.6774 115° Southeast  Level FlightAware Approximate
Wed 05:21:00 PM 32.9399 -86.2160 117° Southeast  Level FlightAware Approximate
Wed 05:22:00 PM 32.9117 -86.1507 117° Southeast  Level FlightAware Approximate
Wed 05:23:00 PM 32.8835 -86.0855 117° Southeast  Level FlightAware Approximate
Wed 05:23:25 PM 32.8667 -85.9833 117° Southeast 237 273 5,900  Level Atlanta TRACON
Wed 05:24:00 PM 32.8552 -86.0202 117° Southeast  Level FlightAware Approximate
Wed 05:24:25 PM 32.8333 -85.9167 121° Southeast 238 274 5,300  Level Atlanta TRACON
Wed 05:25:00 PM 32.8269 -85.9550 117° Southeast  Level FlightAware Approximate
Wed 05:25:25 PM 32.8000 -85.8500 121° Southeast 228 262 5,000  Level Atlanta TRACON
Wed 05:26:00 PM 32.7986 -85.8899 117° Southeast  Level FlightAware Approximate
Wed 05:26:25 PM 32.7667 -85.7833 121° Southeast 217 250 4,800  Level Atlanta TRACON
Wed 05:27:00 PM 32.7702 -85.8248 117° Southeast  Level FlightAware Approximate
Wed 05:27:25 PM 32.7333 -85.7167 121° Southeast 228 262 4,000  Level Atlanta TRACON
Wed 05:28:00 PM 32.7461 -85.7574 117° Southeast  Level FlightAware Approximate
Wed 05:28:25 PM 32.7167 -85.6500 107° East 225 259 3,400  Level Atlanta TRACON

Login

Don't have an account? Register now (free) for customized features, flight alerts, and more!